sensor_id;sensor_type;location;lat;lon;timestamp;P1;durP1;ratioP1;P2;durP2;ratioP2
72115;SDS011;59991;52.140;5.428;2023-07-16T00:00:17;5.90;;;2.05;;
72115;SDS011;59991;52.140;5.428;2023-07-16T00:00:51;3.42;;;1.90;;
72115;SDS011;59991;52.140;5.428;2023-07-16T00:01:24;6.40;;;1.63;;
72115;SDS011;59991;52.140;5.428;2023-07-16T00:01:55;4.45;;;1.80;;
72115;SDS011;59991;52.140;5.428;2023-07-16T00:02:28;7.50;;;2.08;;
72115;SDS011;59991;52.140;5.428;2023-07-16T00:02:59;5.82;;;1.95;;
72115;SDS011;59991;52.140;5.428;2023-07-16T00:03:31;4.47;;;1.70;;
72115;SDS011;59991;52.140;5.428;2023-07-16T00:04:04;6.72;;;1.58;;
72115;SDS011;59991;52.140;5.428;2023-07-16T00:04:36;8.53;;;1.73;;
72115;SDS011;59991;52.140;5.428;2023-07-16T00:05:08;3.47;;;1.60;;
72115;SDS011;59991;52.140;5.428;2023-07-16T00:05:40;4.25;;;1.75;;
72115;SDS011;59991;52.140;5.428;2023-07-16T00:06:11;5.85;;;2.55;;
72115;SDS011;59991;52.140;5.428;2023-07-16T00:06:44;6.65;;;1.92;;
72115;SDS011;59991;52.140;5.428;2023-07-16T00:07:15;7.88;;;2.17;;
72115;SDS011;59991;52.140;5.428;2023-07-16T00:07:48;6.55;;;2.25;;
72115;SDS011;59991;52.140;5.428;2023-07-16T00:08:22;7.38;;;2.05;;
72115;SDS011;59991;52.140;5.428;2023-07-16T00:08:54;6.43;;;2.40;;
72115;SDS011;59991;52.140;5.428;2023-07-16T00:09:25;2.60;;;1.50;;
72115;SDS011;59991;52.140;5.428;2023-07-16T00:09:57;3.87;;;1.83;;
72115;SDS011;59991;52.140;5.428;2023-07-16T00:10:29;6.78;;;2.15;;
72115;SDS011;59991;52.140;5.428;2023-07-16T00:11:00;4.80;;;1.50;;
72115;SDS011;59991;52.140;5.428;2023-07-16T00:11:34;6.68;;;2.42;;
72115;SDS011;59991;52.140;5.428;2023-07-16T00:12:06;5.80;;;1.38;;
72115;SDS011;59991;52.140;5.428;2023-07-16T00:12:38;7.15;;;3.03;;
72115;SDS011;59991;52.140;5.428;2023-07-16T00:13:09;5.50;;;1.60;;
72115;SDS011;59991;52.140;5.428;2023-07-16T00:13:41;6.53;;;2.28;;
72115;SDS011;59991;52.140;5.428;2023-07-16T00:14:17;3.85;;;2.10;;
72115;SDS011;59991;52.140;5.428;2023-07-16T00:14:49;8.45;;;2.22;;
72115;SDS011;59991;52.140;5.428;2023-07-16T00:15:21;5.37;;;1.97;;
72115;SDS011;59991;52.140;5.428;2023-07-16T00:15:52;7.40;;;1.63;;
72115;SDS011;59991;52.140;5.428;2023-07-16T00:16:24;4.30;;;1.67;;
72115;SDS011;59991;52.140;5.428;2023-07-16T00:16:55;7.97;;;2.10;;
72115;SDS011;59991;52.140;5.428;2023-07-16T00:17:27;6.88;;;2.53;;
72115;SDS011;59991;52.140;5.428;2023-07-16T00:17:58;4.65;;;1.70;;
72115;SDS011;59991;52.140;5.428;2023-07-16T00:18:30;6.88;;;2.63;;
72115;SDS011;59991;52.140;5.428;2023-07-16T00:19:01;4.45;;;2.10;;
72115;SDS011;59991;52.140;5.428;2023-07-16T00:19:33;8.75;;;2.67;;
72115;SDS011;59991;52.140;5.428;2023-07-16T00:20:04;6.97;;;2.28;;
72115;SDS011;59991;52.140;5.428;2023-07-16T00:20:38;7.43;;;2.20;;
72115;SDS011;59991;52.140;5.428;2023-07-16T00:21:09;4.18;;;1.70;;
72115;SDS011;59991;52.140;5.428;2023-07-16T00:21:42;3.28;;;2.08;;
72115;SDS011;59991;52.140;5.428;2023-07-16T00:22:13;4.65;;;1.90;;
72115;SDS011;59991;52.140;5.428;2023-07-16T00:22:45;10.35;;;2.25;;
72115;SDS011;59991;52.140;5.428;2023-07-16T00:23:16;5.78;;;1.50;;
72115;SDS011;59991;52.140;5.428;2023-07-16T00:23:48;4.50;;;1.73;;
72115;SDS011;59991;52.140;5.428;2023-07-16T00:24:19;10.13;;;2.28;;
72115;SDS011;59991;52.140;5.428;2023-07-16T00:24:51;6.32;;;2.92;;
72115;SDS011;59991;52.140;5.428;2023-07-16T00:25:24;5.10;;;2.50;;
72115;SDS011;59991;52.140;5.428;2023-07-16T00:25:55;3.57;;;1.77;;
72115;SDS011;59991;52.140;5.428;2023-07-16T00:26:29;7.97;;;2.65;;
72115;SDS011;59991;52.140;5.428;2023-07-16T00:27:01;6.47;;;2.20;;
72115;SDS011;59991;52.140;5.428;2023-07-16T00:27:34;12.30;;;2.83;;
72115;SDS011;59991;52.140;5.428;2023-07-16T00:28:06;8.68;;;2.80;;
72115;SDS011;59991;52.140;5.428;2023-07-16T00:28:40;6.15;;;1.98;;
72115;SDS011;59991;52.140;5.428;2023-07-16T00:29:11;5.00;;;1.63;;
72115;SDS011;59991;52.140;5.428;2023-07-16T00:29:43;3.35;;;2.08;;
72115;SDS011;59991;52.140;5.428;2023-07-16T00:30:15;4.75;;;2.63;;
72115;SDS011;59991;52.140;5.428;2023-07-16T00:30:47;5.38;;;2.47;;
72115;SDS011;59991;52.140;5.428;2023-07-16T00:31:18;7.10;;;2.57;;
72115;SDS011;59991;52.140;5.428;2023-07-16T00:31:50;9.93;;;2.17;;
72115;SDS011;59991;52.140;5.428;2023-07-16T00:32:22;6.75;;;2.05;;
72115;SDS011;59991;52.140;5.428;2023-07-16T00:32:54;6.15;;;2.78;;
72115;SDS011;59991;52.140;5.428;2023-07-16T00:33:25;4.65;;;2.20;;
72115;SDS011;59991;52.140;5.428;2023-07-16T00:33:57;9.55;;;3.00;;
72115;SDS011;59991;52.140;5.428;2023-07-16T00:34:29;10.02;;;2.90;;
72115;SDS011;59991;52.140;5.428;2023-07-16T00:35:01;4.35;;;1.83;;
72115;SDS011;59991;52.140;5.428;2023-07-16T00:35:35;6.03;;;2.47;;
72115;SDS011;59991;52.140;5.428;2023-07-16T00:36:06;7.60;;;2.28;;
72115;SDS011;59991;52.140;5.428;2023-07-16T00:36:38;6.00;;;2.03;;
72115;SDS011;59991;52.140;5.428;2023-07-16T00:37:10;6.22;;;2.03;;
72115;SDS011;59991;52.140;5.428;2023-07-16T00:37:43;5.82;;;1.80;;
72115;SDS011;59991;52.140;5.428;2023-07-16T00:38:19;4.72;;;2.00;;
72115;SDS011;59991;52.140;5.428;2023-07-16T00:38:52;2.92;;;1.85;;
72115;SDS011;59991;52.140;5.428;2023-07-16T00:39:23;4.20;;;2.00;;
72115;SDS011;59991;52.140;5.428;2023-07-16T00:39:54;6.13;;;1.88;;
72115;SDS011;59991;52.140;5.428;2023-07-16T00:40:26;5.50;;;2.13;;
72115;SDS011;59991;52.140;5.428;2023-07-16T00:40:57;6.75;;;2.10;;
72115;SDS011;59991;52.140;5.428;2023-07-16T00:41:29;7.28;;;2.17;;
72115;SDS011;59991;52.140;5.428;2023-07-16T00:42:00;7.33;;;2.37;;
72115;SDS011;59991;52.140;5.428;2023-07-16T00:42:32;7.00;;;2.22;;
72115;SDS011;59991;52.140;5.428;2023-07-16T00:43:04;7.57;;;2.35;;
72115;SDS011;59991;52.140;5.428;2023-07-16T00:43:36;4.47;;;2.38;;
72115;SDS011;59991;52.140;5.428;2023-07-16T00:44:08;5.90;;;2.85;;
72115;SDS011;59991;52.140;5.428;2023-07-16T00:44:39;6.63;;;1.60;;
72115;SDS011;59991;52.140;5.428;2023-07-16T00:45:12;7.43;;;2.25;;
72115;SDS011;59991;52.140;5.428;2023-07-16T00:45:47;7.53;;;1.77;;
72115;SDS011;59991;52.140;5.428;2023-07-16T00:46:18;6.43;;;2.50;;
72115;SDS011;59991;52.140;5.428;2023-07-16T00:46:50;6.90;;;2.10;;
72115;SDS011;59991;52.140;5.428;2023-07-16T00:47:22;6.27;;;2.70;;
72115;SDS011;59991;52.140;5.428;2023-07-16T00:47:56;5.00;;;1.73;;
72115;SDS011;59991;52.140;5.428;2023-07-16T00:48:28;9.18;;;2.67;;
72115;SDS011;59991;52.140;5.428;2023-07-16T00:49:00;6.07;;;2.50;;
72115;SDS011;59991;52.140;5.428;2023-07-16T00:49:32;3.78;;;1.52;;
72115;SDS011;59991;52.140;5.428;2023-07-16T00:50:04;6.28;;;2.03;;
72115;SDS011;59991;52.140;5.428;2023-07-16T00:50:36;5.80;;;2.08;;
72115;SDS011;59991;52.140;5.428;2023-07-16T00:51:10;6.28;;;2.20;;
72115;SDS011;59991;52.140;5.428;2023-07-16T00:51:42;4.63;;;1.88;;
72115;SDS011;59991;52.140;5.428;2023-07-16T00:52:16;7.03;;;1.90;;
72115;SDS011;59991;52.140;5.428;2023-07-16T00:52:52;7.80;;;2.10;;
72115;SDS011;59991;52.140;5.428;2023-07-16T00:53:24;7.93;;;2.55;;
72115;SDS011;59991;52.140;5.428;2023-07-16T00:53:55;3.95;;;1.67;;
72115;SDS011;59991;52.140;5.428;2023-07-16T00:54:28;9.68;;;2.88;;
72115;SDS011;59991;52.140;5.428;2023-07-16T00:55:03;7.18;;;2.80;;
72115;SDS011;59991;52.140;5.428;2023-07-16T00:55:35;6.63;;;2.53;;
72115;SDS011;59991;52.140;5.428;2023-07-16T00:56:08;6.38;;;3.03;;
72115;SDS011;59991;52.140;5.428;2023-07-16T00:56:41;6.00;;;1.90;;
72115;SDS011;59991;52.140;5.428;2023-07-16T00:57:13;4.95;;;2.10;;
72115;SDS011;59991;52.140;5.428;2023-07-16T00:57:44;8.18;;;2.60;;
72115;SDS011;59991;52.140;5.428;2023-07-16T00:58:16;4.60;;;2.80;;
72115;SDS011;59991;52.140;5.428;2023-07-16T00:58:48;7.50;;;2.03;;
72115;SDS011;59991;52.140;5.428;2023-07-16T00:59:19;5.43;;;2.20;;
72115;SDS011;59991;52.140;5.428;2023-07-16T00:59:51;5.25;;;2.30;;
72115;SDS011;59991;52.140;5.428;2023-07-16T01:00:22;7.13;;;2.50;;
72115;SDS011;59991;52.140;5.428;2023-07-16T01:00:54;5.53;;;2.03;;
72115;SDS011;59991;52.140;5.428;2023-07-16T01:01:25;8.80;;;2.47;;
72115;SDS011;59991;52.140;5.428;2023-07-16T01:01:57;8.25;;;2.67;;
72115;SDS011;59991;52.140;5.428;2023-07-16T01:02:29;7.75;;;2.40;;
72115;SDS011;59991;52.140;5.428;2023-07-16T01:03:01;8.88;;;2.03;;
72115;SDS011;59991;52.140;5.428;2023-07-16T01:03:34;3.23;;;1.87;;
72115;SDS011;59991;52.140;5.428;2023-07-16T01:04:05;7.53;;;2.63;;
72115;SDS011;59991;52.140;5.428;2023-07-16T01:04:37;4.68;;;2.13;;
72115;SDS011;59991;52.140;5.428;2023-07-16T01:05:09;8.13;;;2.40;;
72115;SDS011;59991;52.140;5.428;2023-07-16T01:06:17;4.43;;;2.05;;
72115;SDS011;59991;52.140;5.428;2023-07-16T01:06:57;7.55;;;2.13;;
72115;SDS011;59991;52.140;5.428;2023-07-16T01:07:33;5.35;;;1.85;;
72115;SDS011;59991;52.140;5.428;2023-07-16T01:08:08;5.72;;;2.78;;
72115;SDS011;59991;52.140;5.428;2023-07-16T01:09:47;5.63;;;2.43;;
72115;SDS011;59991;52.140;5.428;2023-07-16T01:10:18;9.70;;;2.10;;
72115;SDS011;59991;52.140;5.428;2023-07-16T01:10:51;5.22;;;2.00;;
72115;SDS011;59991;52.140;5.428;2023-07-16T01:11:23;7.60;;;2.28;;
72115;SDS011;59991;52.140;5.428;2023-07-16T01:11:54;6.95;;;2.47;;
72115;SDS011;59991;52.140;5.428;2023-07-16T01:12:29;6.72;;;2.20;;
72115;SDS011;59991;52.140;5.428;2023-07-16T01:13:02;5.97;;;2.05;;
72115;SDS011;59991;52.140;5.428;2023-07-16T01:13:34;7.30;;;2.10;;
72115;SDS011;59991;52.140;5.428;2023-07-16T01:14:07;2.95;;;1.50;;
72115;SDS011;59991;52.140;5.428;2023-07-16T01:14:40;8.77;;;2.47;;
72115;SDS011;59991;52.140;5.428;2023-07-16T01:15:12;8.13;;;2.70;;
72115;SDS011;59991;52.140;5.428;2023-07-16T01:15:44;7.95;;;2.60;;
72115;SDS011;59991;52.140;5.428;2023-07-16T01:16:19;5.38;;;1.85;;
72115;SDS011;59991;52.140;5.428;2023-07-16T01:17:02;9.45;;;2.50;;
72115;SDS011;59991;52.140;5.428;2023-07-16T01:17:34;9.55;;;2.90;;
72115;SDS011;59991;52.140;5.428;2023-07-16T01:18:05;6.65;;;2.00;;
72115;SDS011;59991;52.140;5.428;2023-07-16T01:18:37;5.78;;;2.50;;
72115;SDS011;59991;52.140;5.428;2023-07-16T01:19:09;6.07;;;2.22;;
72115;SDS011;59991;52.140;5.428;2023-07-16T01:19:42;5.65;;;2.67;;
72115;SDS011;59991;52.140;5.428;2023-07-16T01:20:13;5.32;;;2.00;;
72115;SDS011;59991;52.140;5.428;2023-07-16T01:20:45;8.30;;;3.13;;
72115;SDS011;59991;52.140;5.428;2023-07-16T01:21:20;6.65;;;2.42;;
72115;SDS011;59991;52.140;5.428;2023-07-16T01:23:03;5.07;;;2.30;;
72115;SDS011;59991;52.140;5.428;2023-07-16T01:24:44;6.70;;;2.97;;
72115;SDS011;59991;52.140;5.428;2023-07-16T01:30:08;8.35;;;2.70;;
72115;SDS011;59991;52.140;5.428;2023-07-16T01:30:43;8.88;;;2.28;;
72115;SDS011;59991;52.140;5.428;2023-07-16T01:31:19;5.95;;;3.33;;
72115;SDS011;59991;52.140;5.428;2023-07-16T01:31:54;7.03;;;2.50;;
72115;SDS011;59991;52.140;5.428;2023-07-16T01:32:26;8.13;;;2.83;;
72115;SDS011;59991;52.140;5.428;2023-07-16T01:33:01;8.38;;;3.03;;
72115;SDS011;59991;52.140;5.428;2023-07-16T01:33:35;6.68;;;2.42;;
72115;SDS011;59991;52.140;5.428;2023-07-16T01:34:08;8.10;;;3.33;;
72115;SDS011;59991;52.140;5.428;2023-07-16T01:34:41;5.47;;;2.85;;
72115;SDS011;59991;52.140;5.428;2023-07-16T01:35:15;8.20;;;2.60;;
72115;SDS011;59991;52.140;5.428;2023-07-16T01:35:46;8.60;;;2.83;;
72115;SDS011;59991;52.140;5.428;2023-07-16T01:36:21;6.35;;;2.70;;
72115;SDS011;59991;52.140;5.428;2023-07-16T01:36:54;6.43;;;2.22;;
72115;SDS011;59991;52.140;5.428;2023-07-16T01:37:25;8.00;;;2.72;;
72115;SDS011;59991;52.140;5.428;2023-07-16T01:37:57;7.97;;;2.20;;
72115;SDS011;59991;52.140;5.428;2023-07-16T01:38:28;7.25;;;3.05;;
72115;SDS011;59991;52.140;5.428;2023-07-16T01:39:01;8.40;;;3.35;;
72115;SDS011;59991;52.140;5.428;2023-07-16T01:39:33;7.70;;;2.67;;
72115;SDS011;59991;52.140;5.428;2023-07-16T01:40:05;12.50;;;3.25;;
72115;SDS011;59991;52.140;5.428;2023-07-16T01:40:40;10.43;;;2.43;;
72115;SDS011;59991;52.140;5.428;2023-07-16T01:41:11;10.00;;;3.65;;
72115;SDS011;59991;52.140;5.428;2023-07-16T01:41:43;7.05;;;2.85;;
72115;SDS011;59991;52.140;5.428;2023-07-16T01:42:15;6.85;;;2.97;;
72115;SDS011;59991;52.140;5.428;2023-07-16T01:42:47;6.95;;;2.97;;
72115;SDS011;59991;52.140;5.428;2023-07-16T01:43:19;8.27;;;3.53;;
72115;SDS011;59991;52.140;5.428;2023-07-16T01:43:50;13.68;;;3.10;;
72115;SDS011;59991;52.140;5.428;2023-07-16T01:44:22;10.88;;;3.17;;
72115;SDS011;59991;52.140;5.428;2023-07-16T01:44:54;5.93;;;3.08;;
72115;SDS011;59991;52.140;5.428;2023-07-16T01:45:25;7.70;;;2.70;;
72115;SDS011;59991;52.140;5.428;2023-07-16T01:45:58;9.53;;;3.20;;
72115;SDS011;59991;52.140;5.428;2023-07-16T01:46:30;7.40;;;2.80;;
72115;SDS011;59991;52.140;5.428;2023-07-16T01:48:12;7.47;;;2.80;;
72115;SDS011;59991;52.140;5.428;2023-07-16T01:48:53;6.53;;;3.08;;
72115;SDS011;59991;52.140;5.428;2023-07-16T01:49:25;7.82;;;3.03;;
72115;SDS011;59991;52.140;5.428;2023-07-16T01:49:58;6.30;;;2.92;;
72115;SDS011;59991;52.140;5.428;2023-07-16T01:50:30;7.32;;;3.17;;
72115;SDS011;59991;52.140;5.428;2023-07-16T01:51:01;7.45;;;2.95;;
72115;SDS011;59991;52.140;5.428;2023-07-16T01:51:34;11.60;;;2.80;;
72115;SDS011;59991;52.140;5.428;2023-07-16T01:52:06;9.60;;;2.50;;
72115;SDS011;59991;52.140;5.428;2023-07-16T01:52:38;6.97;;;2.80;;
72115;SDS011;59991;52.140;5.428;2023-07-16T01:53:10;6.68;;;2.60;;
72115;SDS011;59991;52.140;5.428;2023-07-16T01:53:41;7.75;;;2.70;;
72115;SDS011;59991;52.140;5.428;2023-07-16T01:54:13;12.45;;;3.22;;
72115;SDS011;59991;52.140;5.428;2023-07-16T01:54:44;9.32;;;2.70;;
72115;SDS011;59991;52.140;5.428;2023-07-16T01:55:18;8.27;;;2.75;;
72115;SDS011;59991;52.140;5.428;2023-07-16T01:55:49;8.13;;;2.85;;
72115;SDS011;59991;52.140;5.428;2023-07-16T01:56:22;8.55;;;2.95;;
72115;SDS011;59991;52.140;5.428;2023-07-16T01:56:53;7.53;;;3.25;;
72115;SDS011;59991;52.140;5.428;2023-07-16T01:57:26;6.40;;;2.73;;
72115;SDS011;59991;52.140;5.428;2023-07-16T01:57:57;10.13;;;3.65;;
72115;SDS011;59991;52.140;5.428;2023-07-16T01:58:29;10.95;;;3.08;;
72115;SDS011;59991;52.140;5.428;2023-07-16T01:59:00;10.52;;;3.25;;
72115;SDS011;59991;52.140;5.428;2023-07-16T01:59:32;8.00;;;3.30;;
72115;SDS011;59991;52.140;5.428;2023-07-16T02:00:04;4.22;;;2.30;;
72115;SDS011;59991;52.140;5.428;2023-07-16T02:00:36;7.95;;;2.72;;
72115;SDS011;59991;52.140;5.428;2023-07-16T02:01:07;5.43;;;2.95;;
72115;SDS011;59991;52.140;5.428;2023-07-16T02:01:39;7.10;;;3.53;;
72115;SDS011;59991;52.140;5.428;2023-07-16T02:02:11;10.82;;;3.22;;
72115;SDS011;59991;52.140;5.428;2023-07-16T02:02:42;6.07;;;3.17;;
72115;SDS011;59991;52.140;5.428;2023-07-16T02:03:14;7.25;;;3.28;;
72115;SDS011;59991;52.140;5.428;2023-07-16T02:03:47;8.25;;;3.10;;
72115;SDS011;59991;52.140;5.428;2023-07-16T02:04:19;5.60;;;3.25;;
72115;SDS011;59991;52.140;5.428;2023-07-16T02:04:51;7.15;;;3.22;;
72115;SDS011;59991;52.140;5.428;2023-07-16T02:05:26;5.78;;;2.70;;
72115;SDS011;59991;52.140;5.428;2023-07-16T02:05:58;8.52;;;2.97;;
72115;SDS011;59991;52.140;5.428;2023-07-16T02:06:29;9.50;;;3.10;;
72115;SDS011;59991;52.140;5.428;2023-07-16T02:07:01;15.30;;;4.35;;
72115;SDS011;59991;52.140;5.428;2023-07-16T02:07:33;7.40;;;3.10;;
72115;SDS011;59991;52.140;5.428;2023-07-16T02:08:04;5.63;;;3.20;;
72115;SDS011;59991;52.140;5.428;2023-07-16T02:08:36;8.63;;;3.33;;
72115;SDS011;59991;52.140;5.428;2023-07-16T02:09:09;8.77;;;2.53;;
72115;SDS011;59991;52.140;5.428;2023-07-16T02:09:42;8.20;;;3.45;;
72115;SDS011;59991;52.140;5.428;2023-07-16T02:10:14;5.53;;;3.47;;
72115;SDS011;59991;52.140;5.428;2023-07-16T02:10:49;11.60;;;3.67;;
72115;SDS011;59991;52.140;5.428;2023-07-16T02:11:20;6.13;;;2.20;;
72115;SDS011;59991;52.140;5.428;2023-07-16T02:11:52;10.60;;;3.72;;
72115;SDS011;59991;52.140;5.428;2023-07-16T02:12:23;6.53;;;3.25;;
72115;SDS011;59991;52.140;5.428;2023-07-16T02:12:55;7.68;;;2.70;;
72115;SDS011;59991;52.140;5.428;2023-07-16T02:13:27;6.60;;;2.57;;
72115;SDS011;59991;52.140;5.428;2023-07-16T02:13:58;12.02;;;3.25;;
72115;SDS011;59991;52.140;5.428;2023-07-16T02:14:30;6.63;;;2.88;;
72115;SDS011;59991;52.140;5.428;2023-07-16T02:15:03;7.70;;;3.80;;
72115;SDS011;59991;52.140;5.428;2023-07-16T02:15:36;7.05;;;2.92;;
72115;SDS011;59991;52.140;5.428;2023-07-16T02:16:07;8.23;;;3.03;;
72115;SDS011;59991;52.140;5.428;2023-07-16T02:16:40;9.10;;;3.20;;
72115;SDS011;59991;52.140;5.428;2023-07-16T02:17:12;12.25;;;4.00;;
72115;SDS011;59991;52.140;5.428;2023-07-16T02:17:44;7.95;;;3.05;;
72115;SDS011;59991;52.140;5.428;2023-07-16T02:18:16;7.57;;;3.10;;
72115;SDS011;59991;52.140;5.428;2023-07-16T02:18:48;7.20;;;3.27;;
72115;SDS011;59991;52.140;5.428;2023-07-16T02:19:19;10.63;;;3.85;;
72115;SDS011;59991;52.140;5.428;2023-07-16T02:19:51;9.32;;;3.33;;
72115;SDS011;59991;52.140;5.428;2023-07-16T02:20:22;8.57;;;3.80;;
72115;SDS011;59991;52.140;5.428;2023-07-16T02:20:54;8.55;;;4.00;;
72115;SDS011;59991;52.140;5.428;2023-07-16T02:21:25;8.45;;;3.60;;
72115;SDS011;59991;52.140;5.428;2023-07-16T02:21:57;7.43;;;3.15;;
72115;SDS011;59991;52.140;5.428;2023-07-16T02:22:29;7.15;;;2.95;;
72115;SDS011;59991;52.140;5.428;2023-07-16T02:23:00;7.57;;;3.70;;
72115;SDS011;59991;52.140;5.428;2023-07-16T02:23:32;7.90;;;3.53;;
72115;SDS011;59991;52.140;5.428;2023-07-16T02:24:04;10.27;;;3.27;;
72115;SDS011;59991;52.140;5.428;2023-07-16T02:24:35;11.13;;;3.40;;
72115;SDS011;59991;52.140;5.428;2023-07-16T02:25:07;10.52;;;3.63;;
72115;SDS011;59991;52.140;5.428;2023-07-16T02:25:39;7.28;;;3.67;;
72115;SDS011;59991;52.140;5.428;2023-07-16T02:26:10;8.93;;;3.22;;
72115;SDS011;59991;52.140;5.428;2023-07-16T02:26:42;8.70;;;3.70;;
72115;SDS011;59991;52.140;5.428;2023-07-16T02:27:14;8.60;;;3.47;;
72115;SDS011;59991;52.140;5.428;2023-07-16T02:27:45;9.07;;;3.83;;
72115;SDS011;59991;52.140;5.428;2023-07-16T02:28:18;14.32;;;3.83;;
72115;SDS011;59991;52.140;5.428;2023-07-16T02:28:49;8.23;;;3.67;;
72115;SDS011;59991;52.140;5.428;2023-07-16T02:29:21;9.33;;;3.23;;
72115;SDS011;59991;52.140;5.428;2023-07-16T02:29:53;9.32;;;3.38;;
72115;SDS011;59991;52.140;5.428;2023-07-16T02:30:25;12.43;;;3.33;;
72115;SDS011;59991;52.140;5.428;2023-07-16T02:30:57;6.90;;;3.60;;
72115;SDS011;59991;52.140;5.428;2023-07-16T02:31:29;9.13;;;3.42;;
72115;SDS011;59991;52.140;5.428;2023-07-16T02:32:02;8.35;;;3.38;;
72115;SDS011;59991;52.140;5.428;2023-07-16T02:32:34;10.32;;;3.83;;
72115;SDS011;59991;52.140;5.428;2023-07-16T02:33:07;7.60;;;3.50;;
72115;SDS011;59991;52.140;5.428;2023-07-16T02:33:38;9.10;;;3.42;;
72115;SDS011;59991;52.140;5.428;2023-07-16T02:34:10;9.32;;;3.85;;
72115;SDS011;59991;52.140;5.428;2023-07-16T02:34:41;8.53;;;2.87;;
72115;SDS011;59991;52.140;5.428;2023-07-16T02:35:13;14.60;;;4.00;;
72115;SDS011;59991;52.140;5.428;2023-07-16T02:35:49;8.75;;;3.45;;
72115;SDS011;59991;52.140;5.428;2023-07-16T02:36:22;6.47;;;3.63;;
72115;SDS011;59991;52.140;5.428;2023-07-16T02:36:55;8.02;;;3.80;;
72115;SDS011;59991;52.140;5.428;2023-07-16T02:37:27;11.18;;;3.70;;
72115;SDS011;59991;52.140;5.428;2023-07-16T02:37:59;9.68;;;3.38;;
72115;SDS011;59991;52.140;5.428;2023-07-16T02:38:30;8.52;;;3.35;;
72115;SDS011;59991;52.140;5.428;2023-07-16T02:39:03;7.18;;;3.90;;
72115;SDS011;59991;52.140;5.428;2023-07-16T02:39:36;9.90;;;3.42;;
72115;SDS011;59991;52.140;5.428;2023-07-16T02:40:11;12.20;;;3.93;;
72115;SDS011;59991;52.140;5.428;2023-07-16T02:40:46;10.30;;;3.40;;
72115;SDS011;59991;52.140;5.428;2023-07-16T02:41:18;13.55;;;3.25;;
72115;SDS011;59991;52.140;5.428;2023-07-16T02:41:50;10.85;;;3.38;;
72115;SDS011;59991;52.140;5.428;2023-07-16T02:42:21;7.63;;;4.40;;
72115;SDS011;59991;52.140;5.428;2023-07-16T02:42:53;8.85;;;3.55;;
72115;SDS011;59991;52.140;5.428;2023-07-16T02:43:26;14.50;;;3.50;;
72115;SDS011;59991;52.140;5.428;2023-07-16T02:43:59;10.40;;;4.18;;
72115;SDS011;59991;52.140;5.428;2023-07-16T02:44:36;10.23;;;4.28;;
72115;SDS011;59991;52.140;5.428;2023-07-16T02:45:16;10.75;;;3.30;;
72115;SDS011;59991;52.140;5.428;2023-07-16T02:45:48;9.27;;;3.37;;
72115;SDS011;59991;52.140;5.428;2023-07-16T02:46:19;9.93;;;3.63;;
72115;SDS011;59991;52.140;5.428;2023-07-16T02:46:51;11.52;;;3.40;;
72115;SDS011;59991;52.140;5.428;2023-07-16T02:47:22;12.43;;;3.42;;
72115;SDS011;59991;52.140;5.428;2023-07-16T02:47:55;11.05;;;3.45;;
72115;SDS011;59991;52.140;5.428;2023-07-16T02:48:26;9.25;;;3.85;;
72115;SDS011;59991;52.140;5.428;2023-07-16T02:48:59;8.10;;;3.40;;
72115;SDS011;59991;52.140;5.428;2023-07-16T02:49:31;10.65;;;3.35;;
72115;SDS011;59991;52.140;5.428;2023-07-16T02:50:02;5.22;;;3.08;;
72115;SDS011;59991;52.140;5.428;2023-07-16T02:50:35;11.23;;;3.20;;
72115;SDS011;59991;52.140;5.428;2023-07-16T02:51:09;7.33;;;3.93;;
72115;SDS011;59991;52.140;5.428;2023-07-16T02:51:41;7.22;;;3.28;;
72115;SDS011;59991;52.140;5.428;2023-07-16T02:52:14;9.38;;;3.58;;
72115;SDS011;59991;52.140;5.428;2023-07-16T02:52:46;11.27;;;3.80;;
72115;SDS011;59991;52.140;5.428;2023-07-16T02:53:18;6.63;;;2.97;;
72115;SDS011;59991;52.140;5.428;2023-07-16T02:53:50;6.95;;;3.10;;
72115;SDS011;59991;52.140;5.428;2023-07-16T02:54:21;7.97;;;3.90;;
72115;SDS011;59991;52.140;5.428;2023-07-16T02:54:53;11.43;;;4.40;;
72115;SDS011;59991;52.140;5.428;2023-07-16T02:55:24;10.32;;;3.55;;
72115;SDS011;59991;52.140;5.428;2023-07-16T02:55:56;11.07;;;3.40;;
72115;SDS011;59991;52.140;5.428;2023-07-16T02:56:27;6.47;;;3.27;;
72115;SDS011;59991;52.140;5.428;2023-07-16T02:57:00;9.45;;;3.40;;
72115;SDS011;59991;52.140;5.428;2023-07-16T02:57:32;8.90;;;3.60;;
72115;SDS011;59991;52.140;5.428;2023-07-16T02:58:04;8.20;;;3.58;;
72115;SDS011;59991;52.140;5.428;2023-07-16T02:58:35;10.43;;;3.28;;
72115;SDS011;59991;52.140;5.428;2023-07-16T02:59:07;8.05;;;3.00;;
72115;SDS011;59991;52.140;5.428;2023-07-16T02:59:38;5.95;;;3.47;;
72115;SDS011;59991;52.140;5.428;2023-07-16T03:00:10;7.30;;;4.05;;
72115;SDS011;59991;52.140;5.428;2023-07-16T03:00:42;9.75;;;3.95;;
72115;SDS011;59991;52.140;5.428;2023-07-16T03:01:13;6.28;;;2.90;;
72115;SDS011;59991;52.140;5.428;2023-07-16T03:01:45;9.53;;;3.43;;
72115;SDS011;59991;52.140;5.428;2023-07-16T03:02:17;9.60;;;3.00;;
72115;SDS011;59991;52.140;5.428;2023-07-16T03:02:48;5.85;;;2.95;;
72115;SDS011;59991;52.140;5.428;2023-07-16T03:03:23;9.38;;;3.30;;
72115;SDS011;59991;52.140;5.428;2023-07-16T03:03:55;5.55;;;3.00;;
72115;SDS011;59991;52.140;5.428;2023-07-16T03:04:27;7.97;;;3.25;;
72115;SDS011;59991;52.140;5.428;2023-07-16T03:04:59;4.88;;;2.85;;
72115;SDS011;59991;52.140;5.428;2023-07-16T03:05:30;12.15;;;4.30;;
72115;SDS011;59991;52.140;5.428;2023-07-16T03:06:02;7.85;;;3.45;;
72115;SDS011;59991;52.140;5.428;2023-07-16T03:06:34;9.38;;;3.22;;
72115;SDS011;59991;52.140;5.428;2023-07-16T03:07:05;7.37;;;3.30;;
72115;SDS011;59991;52.140;5.428;2023-07-16T03:07:39;6.00;;;3.00;;
72115;SDS011;59991;52.140;5.428;2023-07-16T03:08:11;6.03;;;3.45;;
72115;SDS011;59991;52.140;5.428;2023-07-16T03:08:44;9.15;;;2.95;;
72115;SDS011;59991;52.140;5.428;2023-07-16T03:09:16;9.52;;;3.83;;
72115;SDS011;59991;52.140;5.428;2023-07-16T03:09:48;8.40;;;2.83;;
72115;SDS011;59991;52.140;5.428;2023-07-16T03:10:20;12.18;;;3.50;;
72115;SDS011;59991;52.140;5.428;2023-07-16T03:10:52;10.20;;;3.53;;
72115;SDS011;59991;52.140;5.428;2023-07-16T03:11:23;10.90;;;3.67;;
72115;SDS011;59991;52.140;5.428;2023-07-16T03:11:55;7.20;;;3.20;;
72115;SDS011;59991;52.140;5.428;2023-07-16T03:12:26;5.77;;;2.87;;
72115;SDS011;59991;52.140;5.428;2023-07-16T03:12:58;6.07;;;3.03;;
72115;SDS011;59991;52.140;5.428;2023-07-16T03:13:29;5.63;;;2.92;;
72115;SDS011;59991;52.140;5.428;2023-07-16T03:14:01;6.05;;;2.88;;
72115;SDS011;59991;52.140;5.428;2023-07-16T03:14:33;7.13;;;2.85;;
72115;SDS011;59991;52.140;5.428;2023-07-16T03:15:05;7.30;;;3.28;;
72115;SDS011;59991;52.140;5.428;2023-07-16T03:15:37;7.10;;;3.33;;
72115;SDS011;59991;52.140;5.428;2023-07-16T03:16:09;11.80;;;3.65;;
72115;SDS011;59991;52.140;5.428;2023-07-16T03:16:42;7.93;;;3.13;;
72115;SDS011;59991;52.140;5.428;2023-07-16T03:17:14;6.72;;;3.33;;
72115;SDS011;59991;52.140;5.428;2023-07-16T03:17:47;9.53;;;3.30;;
72115;SDS011;59991;52.140;5.428;2023-07-16T03:18:19;5.70;;;3.28;;
72115;SDS011;59991;52.140;5.428;2023-07-16T03:18:51;7.38;;;3.88;;
72115;SDS011;59991;52.140;5.428;2023-07-16T03:19:22;6.35;;;3.40;;
72115;SDS011;59991;52.140;5.428;2023-07-16T03:19:54;8.63;;;3.78;;
72115;SDS011;59991;52.140;5.428;2023-07-16T03:20:25;7.18;;;2.95;;
72115;SDS011;59991;52.140;5.428;2023-07-16T03:20:57;6.15;;;2.92;;
72115;SDS011;59991;52.140;5.428;2023-07-16T03:21:29;7.57;;;2.95;;
72115;SDS011;59991;52.140;5.428;2023-07-16T03:22:02;8.70;;;3.33;;
72115;SDS011;59991;52.140;5.428;2023-07-16T03:22:35;8.15;;;3.05;;
72115;SDS011;59991;52.140;5.428;2023-07-16T03:23:07;5.87;;;3.50;;
72115;SDS011;59991;52.140;5.428;2023-07-16T03:23:38;8.45;;;3.70;;
72115;SDS011;59991;52.140;5.428;2023-07-16T03:24:10;7.82;;;3.75;;